createdAt,value
2023-03-22T00:00:24.777Z,1002.673
2023-03-22T00:00:54.774Z,1002.665
2023-03-22T00:01:24.791Z,1002.653
2023-03-22T00:01:54.778Z,1002.658
2023-03-22T00:02:24.816Z,1002.641
2023-03-22T00:02:54.851Z,1002.637
2023-03-22T00:03:24.800Z,1002.626
2023-03-22T00:03:54.833Z,1002.628
2023-03-22T00:04:24.786Z,1002.626
2023-03-22T00:04:54.780Z,1002.626
2023-03-22T00:05:24.771Z,1002.625
2023-03-22T00:05:54.771Z,1002.62
2023-03-22T00:06:24.774Z,1002.612
2023-03-22T00:06:54.780Z,1002.611
2023-03-22T00:07:24.783Z,1002.602
2023-03-22T00:07:54.774Z,1002.599
2023-03-22T00:08:24.771Z,1002.598
2023-03-22T00:08:54.772Z,1002.589
2023-03-22T00:09:24.794Z,1002.593
2023-03-22T00:09:54.771Z,1002.587
2023-03-22T00:10:24.774Z,1002.584
2023-03-22T00:10:54.773Z,1002.571
2023-03-22T00:11:24.772Z,1002.571
2023-03-22T00:11:54.773Z,1002.58
2023-03-22T00:12:24.770Z,1002.571
2023-03-22T00:12:54.776Z,1002.573
2023-03-22T00:13:24.775Z,1002.58
2023-03-22T00:13:55.013Z,1002.586
2023-03-22T00:14:24.779Z,1002.59
2023-03-22T00:14:54.770Z,1002.584
2023-03-22T00:15:24.802Z,1002.579
2023-03-22T00:15:54.804Z,1002.568
2023-03-22T00:16:24.838Z,1002.566
2023-03-22T00:16:54.771Z,1002.57
2023-03-22T00:17:24.774Z,1002.561
2023-03-22T00:17:54.773Z,1002.571
2023-03-22T00:18:24.772Z,1002.568
2023-03-22T00:18:54.774Z,1002.565
2023-03-22T00:19:24.772Z,1002.567
2023-03-22T00:19:54.772Z,1002.567
2023-03-22T00:20:24.771Z,1002.561
2023-03-22T00:20:54.773Z,1002.556
2023-03-22T00:21:24.775Z,1002.557
2023-03-22T00:21:54.774Z,1002.55
2023-03-22T00:22:24.772Z,1002.545
2023-03-22T00:22:54.774Z,1002.541
2023-03-22T00:23:24.772Z,1002.543
2023-03-22T00:23:54.773Z,1002.549
2023-03-22T00:24:24.772Z,1002.543
2023-03-22T00:24:54.782Z,1002.542
2023-03-22T00:25:24.775Z,1002.538
2023-03-22T00:25:54.771Z,1002.53
2023-03-22T00:26:24.813Z,1002.53
2023-03-22T00:26:54.772Z,1002.528
2023-03-22T00:27:24.772Z,1002.531
2023-03-22T00:27:54.783Z,1002.538
2023-03-22T00:28:24.785Z,1002.557
2023-03-22T00:28:54.787Z,1002.563
2023-03-22T00:29:24.775Z,1002.562
2023-03-22T00:29:54.779Z,1002.557
2023-03-22T00:30:24.782Z,1002.554
2023-03-22T00:30:54.791Z,1002.546
2023-03-22T00:31:24.785Z,1002.537
2023-03-22T00:31:54.776Z,1002.522
2023-03-22T00:32:24.774Z,1002.515
2023-03-22T00:32:54.778Z,1002.525
2023-03-22T00:33:24.778Z,1002.523
2023-03-22T00:33:54.780Z,1002.531
2023-03-22T00:34:24.784Z,1002.552
2023-03-22T00:34:54.775Z,1002.577
2023-03-22T00:35:24.815Z,1002.591
2023-03-22T00:35:54.814Z,1002.591
2023-03-22T00:36:24.779Z,1002.59
2023-03-22T00:36:54.775Z,1002.588
2023-03-22T00:37:24.776Z,1002.583
2023-03-22T00:37:54.776Z,1002.584
2023-03-22T00:38:35.947Z,1002.584
2023-03-22T00:38:55.704Z,1002.578
2023-03-22T00:39:24.779Z,1002.581
2023-03-22T00:39:54.781Z,1002.571
2023-03-22T00:40:24.777Z,1002.573
2023-03-22T00:40:54.782Z,1002.567
2023-03-22T00:41:24.779Z,1002.57
2023-03-22T00:41:54.784Z,1002.568
2023-03-22T00:42:24.782Z,1002.577
2023-03-22T00:42:54.786Z,1002.582
2023-03-22T00:43:24.785Z,1002.589
2023-03-22T00:43:54.790Z,1002.609
2023-03-22T00:44:24.792Z,1002.611
2023-03-22T00:44:54.785Z,1002.625
2023-03-22T00:45:24.777Z,1002.616
2023-03-22T00:45:54.793Z,1002.63
2023-03-22T00:46:24.800Z,1002.641
2023-03-22T00:46:54.780Z,1002.654
2023-03-22T00:47:24.779Z,1002.662
2023-03-22T00:47:54.874Z,1002.678
2023-03-22T00:48:24.877Z,1002.687
2023-03-22T00:48:54.783Z,1002.698
2023-03-22T00:49:24.782Z,1002.695
2023-03-22T00:49:54.786Z,1002.695
2023-03-22T00:50:24.780Z,1002.679
2023-03-22T00:50:54.778Z,1002.683
2023-03-22T00:51:24.784Z,1002.688
2023-03-22T00:51:54.780Z,1002.685
2023-03-22T00:52:24.785Z,1002.681
2023-03-22T00:52:54.778Z,1002.658
2023-03-22T00:53:24.799Z,1002.633
2023-03-22T00:53:54.803Z,1002.634
2023-03-22T00:54:24.789Z,1002.639
2023-03-22T00:54:54.783Z,1002.638
2023-03-22T00:55:24.785Z,1002.637
2023-03-22T00:55:54.779Z,1002.646
2023-03-22T00:56:24.786Z,1002.654
2023-03-22T00:56:54.802Z,1002.67
2023-03-22T00:57:24.782Z,1002.669
2023-03-22T00:57:54.790Z,1002.663
2023-03-22T00:58:24.808Z,1002.647
2023-03-22T00:58:54.792Z,1002.631
2023-03-22T00:59:24.812Z,1002.612
2023-03-22T00:59:54.781Z,1002.605
2023-03-22T01:00:24.789Z,1002.606
2023-03-22T01:00:54.802Z,1002.604
2023-03-22T01:01:24.831Z,1002.61
2023-03-22T01:01:54.783Z,1002.606
2023-03-22T01:02:24.782Z,1002.6
2023-03-22T01:02:54.780Z,1002.604
2023-03-22T01:03:24.895Z,1002.615
2023-03-22T01:03:54.902Z,1002.624
2023-03-22T01:04:24.781Z,1002.627
2023-03-22T01:04:54.780Z,1002.634
2023-03-22T01:05:24.780Z,1002.644
2023-03-22T01:05:54.782Z,1002.641
2023-03-22T01:06:24.780Z,1002.634
2023-03-22T01:06:54.783Z,1002.635
2023-03-22T01:07:24.779Z,1002.63
2023-03-22T01:07:54.777Z,1002.623
2023-03-22T01:08:24.774Z,1002.631
2023-03-22T01:08:54.781Z,1002.619
2023-03-22T01:09:24.778Z,1002.62
2023-03-22T01:09:54.777Z,1002.633
2023-03-22T01:10:24.778Z,1002.655
2023-03-22T01:10:54.777Z,1002.666
2023-03-22T01:11:24.781Z,1002.682
2023-03-22T01:11:54.784Z,1002.682
2023-03-22T01:12:24.788Z,1002.689
2023-03-22T01:12:54.795Z,1002.701
2023-03-22T01:13:24.789Z,1002.705
2023-03-22T01:13:54.781Z,1002.703
2023-03-22T01:14:24.778Z,1002.7
2023-03-22T01:14:54.780Z,1002.701
2023-03-22T01:15:24.780Z,1002.71
2023-03-22T01:15:54.789Z,1002.717
2023-03-22T01:16:24.859Z,1002.712
2023-03-22T01:16:54.827Z,1002.708
2023-03-22T01:17:24.800Z,1002.704
2023-03-22T01:17:54.781Z,1002.689
2023-03-22T01:18:24.779Z,1002.666
2023-03-22T01:18:54.784Z,1002.654
2023-03-22T01:19:24.793Z,1002.653
2023-03-22T01:19:54.792Z,1002.66
2023-03-22T01:20:24.782Z,1002.659
2023-03-22T01:20:54.778Z,1002.662
2023-03-22T01:21:24.780Z,1002.672
2023-03-22T01:21:54.781Z,1002.698
2023-03-22T01:22:24.779Z,1002.706
2023-03-22T01:22:54.777Z,1002.722
2023-03-22T01:23:24.781Z,1002.723
2023-03-22T01:23:54.778Z,1002.726
2023-03-22T01:24:24.778Z,1002.729
2023-03-22T01:24:54.784Z,1002.735
2023-03-22T01:25:24.788Z,1002.734
2023-03-22T01:25:54.783Z,1002.734
2023-03-22T01:26:24.780Z,1002.737
2023-03-22T01:26:54.787Z,1002.738
2023-03-22T01:27:24.785Z,1002.737
2023-03-22T01:27:54.786Z,1002.735
2023-03-22T01:28:27.069Z,1002.732
2023-03-22T01:28:54.779Z,1002.733
2023-03-22T01:29:24.779Z,1002.73
2023-03-22T01:29:54.780Z,1002.723
2023-03-22T01:30:24.850Z,1002.73
2023-03-22T01:30:54.820Z,1002.739
2023-03-22T01:31:24.784Z,1002.741
2023-03-22T01:31:54.783Z,1002.749
2023-03-22T01:32:24.778Z,1002.752
2023-03-22T01:32:54.781Z,1002.754
2023-03-22T01:33:24.788Z,1002.763
2023-03-22T01:33:54.798Z,1002.763
2023-03-22T01:34:24.811Z,1002.773
2023-03-22T01:34:54.785Z,1002.779
2023-03-22T01:35:24.867Z,1002.776
2023-03-22T01:35:54.832Z,1002.763
2023-03-22T01:36:24.786Z,1002.757
2023-03-22T01:36:54.786Z,1002.757
2023-03-22T01:37:24.783Z,1002.76
2023-03-22T01:37:54.786Z,1002.754
2023-03-22T01:38:24.788Z,1002.753
2023-03-22T01:38:54.785Z,1002.742
2023-03-22T01:39:24.785Z,1002.735
2023-03-22T01:39:54.783Z,1002.733
2023-03-22T01:40:24.782Z,1002.745
2023-03-22T01:40:54.800Z,1002.75
2023-03-22T01:41:24.789Z,1002.749
2023-03-22T01:41:54.795Z,1002.745
2023-03-22T01:42:24.787Z,1002.75
2023-03-22T01:42:54.788Z,1002.742
2023-03-22T01:43:24.786Z,1002.738
2023-03-22T01:43:54.784Z,1002.729
2023-03-22T01:44:24.784Z,1002.721
2023-03-22T01:44:54.785Z,1002.723
2023-03-22T01:45:24.792Z,1002.72
2023-03-22T01:45:54.873Z,1002.731
2023-03-22T01:46:24.830Z,1002.757
2023-03-22T01:46:54.788Z,1002.778
2023-03-22T01:47:24.785Z,1002.789
2023-03-22T01:47:54.838Z,1002.79
2023-03-22T01:48:24.825Z,1002.789
2023-03-22T01:48:54.857Z,1002.787
2023-03-22T01:49:24.841Z,1002.781
2023-03-22T01:49:54.788Z,1002.777
2023-03-22T01:50:24.784Z,1002.783
2023-03-22T01:50:54.788Z,1002.788
2023-03-22T01:51:24.810Z,1002.79
2023-03-22T01:51:54.792Z,1002.79
2023-03-22T01:52:24.785Z,1002.797
2023-03-22T01:52:54.786Z,1002.806
2023-03-22T01:53:24.797Z,1002.804
2023-03-22T01:53:54.786Z,1002.8
2023-03-22T01:54:24.789Z,1002.796
2023-03-22T01:54:54.785Z,1002.792
2023-03-22T01:55:24.791Z,1002.781
2023-03-22T01:55:54.786Z,1002.759
2023-03-22T01:56:24.793Z,1002.74
2023-03-22T01:56:54.807Z,1002.715
2023-03-22T01:57:24.799Z,1002.696
2023-03-22T01:57:54.789Z,1002.678
2023-03-22T01:58:24.790Z,1002.67
2023-03-22T01:58:54.788Z,1002.671
2023-03-22T01:59:24.788Z,1002.67
2023-03-22T01:59:54.787Z,1002.675
2023-03-22T02:00:24.789Z,1002.67
2023-03-22T02:00:54.790Z,1002.684
2023-03-22T02:01:24.869Z,1002.689
2023-03-22T02:01:54.797Z,1002.7
2023-03-22T02:02:24.829Z,1002.714
2023-03-22T02:02:54.809Z,1002.717
2023-03-22T02:03:24.799Z,1002.717
2023-03-22T02:03:54.786Z,1002.708
2023-03-22T02:04:24.788Z,1002.696
2023-03-22T02:04:54.793Z,1002.685
2023-03-22T02:05:24.792Z,1002.672
2023-03-22T02:05:54.803Z,1002.664
2023-03-22T02:06:24.817Z,1002.667
2023-03-22T02:06:54.815Z,1002.66
2023-03-22T02:07:24.795Z,1002.668
2023-03-22T02:07:54.802Z,1002.665
2023-03-22T02:08:24.792Z,1002.674
2023-03-22T02:08:54.790Z,1002.694
2023-03-22T02:09:24.800Z,1002.698
2023-03-22T02:09:54.794Z,1002.704
2023-03-22T02:10:24.798Z,1002.718
2023-03-22T02:10:54.789Z,1002.732
2023-03-22T02:11:24.795Z,1002.737
2023-03-22T02:11:54.797Z,1002.744
2023-03-22T02:12:24.787Z,1002.743
2023-03-22T02:12:54.789Z,1002.743
2023-03-22T02:13:24.788Z,1002.745
2023-03-22T02:13:54.788Z,1002.757
2023-03-22T02:14:27.129Z,1002.775
2023-03-22T02:14:54.788Z,1002.788
2023-03-22T02:15:24.791Z,1002.802
2023-03-22T02:15:54.869Z,1002.808
2023-03-22T02:16:24.788Z,1002.814
2023-03-22T02:16:54.791Z,1002.81
2023-03-22T02:17:24.797Z,1002.788
2023-03-22T02:17:54.788Z,1002.766
2023-03-22T02:18:24.788Z,1002.743
2023-03-22T02:18:54.799Z,1002.726
2023-03-22T02:19:24.789Z,1002.712
2023-03-22T02:19:54.790Z,1002.696
2023-03-22T02:20:24.798Z,1002.69
2023-03-22T02:20:54.791Z,1002.669
2023-03-22T02:21:24.798Z,1002.656
2023-03-22T02:21:54.792Z,1002.637
2023-03-22T02:22:24.788Z,1002.641
2023-03-22T02:22:54.790Z,1002.643
2023-03-22T02:23:24.789Z,1002.644
2023-03-22T02:23:54.796Z,1002.67
2023-03-22T02:24:24.789Z,1002.68
2023-03-22T02:24:54.790Z,1002.687
2023-03-22T02:25:24.804Z,1002.701
2023-03-22T02:25:54.793Z,1002.715
2023-03-22T02:26:24.808Z,1002.721
2023-03-22T02:26:54.799Z,1002.727
2023-03-22T02:27:24.792Z,1002.727
2023-03-22T02:27:54.791Z,1002.725
2023-03-22T02:28:24.793Z,1002.729
2023-03-22T02:28:54.793Z,1002.732
2023-03-22T02:29:24.788Z,1002.737
2023-03-22T02:29:54.792Z,1002.731
2023-03-22T02:30:24.790Z,1002.735
2023-03-22T02:30:54.837Z,1002.733
2023-03-22T02:31:24.828Z,1002.716
2023-03-22T02:31:54.801Z,1002.708
2023-03-22T02:32:24.801Z,1002.698
2023-03-22T02:32:54.823Z,1002.694
2023-03-22T02:33:24.790Z,1002.679
2023-03-22T02:33:54.790Z,1002.68
2023-03-22T02:34:24.792Z,1002.677
2023-03-22T02:34:54.795Z,1002.672
2023-03-22T02:35:24.840Z,1002.673
2023-03-22T02:35:54.821Z,1002.666
2023-03-22T02:36:24.799Z,1002.667
2023-03-22T02:36:54.791Z,1002.663
2023-03-22T02:37:24.792Z,1002.657
2023-03-22T02:37:54.795Z,1002.654
2023-03-22T02:38:24.804Z,1002.64
2023-03-22T02:38:54.791Z,1002.634
2023-03-22T02:39:24.808Z,1002.628
2023-03-22T02:39:54.792Z,1002.63
2023-03-22T02:40:24.795Z,1002.632
2023-03-22T02:40:54.803Z,1002.64
2023-03-22T02:41:24.803Z,1002.639
2023-03-22T02:41:54.795Z,1002.623
2023-03-22T02:42:24.793Z,1002.617
2023-03-22T02:42:54.797Z,1002.616
2023-03-22T02:43:24.794Z,1002.608
2023-03-22T02:43:54.798Z,1002.603
2023-03-22T02:44:24.796Z,1002.607
2023-03-22T02:44:54.796Z,1002.606
2023-03-22T02:45:24.791Z,1002.612
2023-03-22T02:45:54.789Z,1002.619
2023-03-22T02:46:24.846Z,1002.623
2023-03-22T02:46:54.827Z,1002.63
2023-03-22T02:47:24.793Z,1002.631
2023-03-22T02:47:54.835Z,1002.63
2023-03-22T02:48:25.002Z,1002.63
2023-03-22T02:48:54.791Z,1002.639
2023-03-22T02:49:24.791Z,1002.65
2023-03-22T02:49:54.790Z,1002.653
2023-03-22T02:50:24.790Z,1002.665
2023-03-22T02:50:54.791Z,1002.673
2023-03-22T02:51:24.801Z,1002.671
2023-03-22T02:51:54.792Z,1002.68
2023-03-22T02:52:24.794Z,1002.681
2023-03-22T02:52:54.794Z,1002.685
2023-03-22T02:53:24.807Z,1002.681
2023-03-22T02:53:54.792Z,1002.688
2023-03-22T02:54:24.795Z,1002.69
2023-03-22T02:54:54.795Z,1002.693
2023-03-22T02:55:24.809Z,1002.704
2023-03-22T02:55:54.799Z,1002.713
2023-03-22T02:56:24.791Z,1002.724
2023-03-22T02:56:54.796Z,1002.728
2023-03-22T02:57:24.791Z,1002.724
2023-03-22T02:57:54.791Z,1002.715
2023-03-22T02:58:24.793Z,1002.725
2023-03-22T02:58:54.800Z,1002.719
2023-03-22T02:59:24.792Z,1002.73
2023-03-22T02:59:54.795Z,1002.735
2023-03-22T03:00:24.791Z,1002.736
2023-03-22T03:00:54.853Z,1002.75
2023-03-22T03:01:24.874Z,1002.753
2023-03-22T03:01:54.889Z,1002.752
2023-03-22T03:02:24.868Z,1002.756
2023-03-22T03:02:54.792Z,1002.745
2023-03-22T03:03:24.796Z,1002.747
2023-03-22T03:03:54.797Z,1002.742
2023-03-22T03:04:24.793Z,1002.746
2023-03-22T03:04:54.793Z,1002.736
2023-03-22T03:05:24.794Z,1002.737
2023-03-22T03:05:54.792Z,1002.735
2023-03-22T03:06:24.798Z,1002.735
2023-03-22T03:06:54.793Z,1002.74
2023-03-22T03:07:24.795Z,1002.745
2023-03-22T03:07:54.796Z,1002.74
2023-03-22T03:08:24.795Z,1002.74
2023-03-22T03:08:54.797Z,1002.743
2023-03-22T03:09:24.792Z,1002.741
2023-03-22T03:09:54.800Z,1002.742
2023-03-22T03:10:24.806Z,1002.751
2023-03-22T03:10:54.792Z,1002.743
2023-03-22T03:11:24.798Z,1002.747
2023-03-22T03:11:54.795Z,1002.745
2023-03-22T03:12:24.811Z,1002.736
2023-03-22T03:12:54.798Z,1002.747
2023-03-22T03:13:24.816Z,1002.74
2023-03-22T03:13:54.792Z,1002.741
2023-03-22T03:14:24.800Z,1002.74
2023-03-22T03:14:54.806Z,1002.73
2023-03-22T03:15:24.796Z,1002.719
2023-03-22T03:15:54.850Z,1002.709
2023-03-22T03:16:24.834Z,1002.707
2023-03-22T03:16:54.797Z,1002.698
2023-03-22T03:17:24.793Z,1002.688
2023-03-22T03:17:54.794Z,1002.69
2023-03-22T03:18:24.794Z,1002.694
2023-03-22T03:18:54.803Z,1002.694
2023-03-22T03:19:24.799Z,1002.692
2023-03-22T03:19:54.797Z,1002.69
2023-03-22T03:20:24.796Z,1002.698
2023-03-22T03:20:54.793Z,1002.701
2023-03-22T03:21:24.794Z,1002.7
2023-03-22T03:21:54.798Z,1002.708
2023-03-22T03:22:24.794Z,1002.714
2023-03-22T03:22:54.801Z,1002.726
2023-03-22T03:23:24.795Z,1002.718
2023-03-22T03:23:54.802Z,1002.715
2023-03-22T03:24:24.812Z,1002.725
2023-03-22T03:24:54.828Z,1002.726
2023-03-22T03:25:24.806Z,1002.738
2023-03-22T03:25:54.795Z,1002.75
2023-03-22T03:26:24.801Z,1002.761
2023-03-22T03:26:54.803Z,1002.766
2023-03-22T03:27:24.795Z,1002.785
2023-03-22T03:27:54.803Z,1002.793
2023-03-22T03:28:24.795Z,1002.81
2023-03-22T03:28:54.804Z,1002.823
2023-03-22T03:29:24.798Z,1002.828
2023-03-22T03:29:54.795Z,1002.84
2023-03-22T03:30:24.799Z,1002.843
2023-03-22T03:30:54.797Z,1002.855
2023-03-22T03:31:24.867Z,1002.852
2023-03-22T03:31:54.912Z,1002.843
2023-03-22T03:32:24.800Z,1002.838
2023-03-22T03:32:54.809Z,1002.821
2023-03-22T03:33:24.803Z,1002.813
2023-03-22T03:33:54.800Z,1002.806
2023-03-22T03:34:24.798Z,1002.806
2023-03-22T03:34:54.797Z,1002.809
2023-03-22T03:35:24.804Z,1002.82
2023-03-22T03:35:54.850Z,1002.842
2023-03-22T03:36:24.795Z,1002.848
2023-03-22T03:36:54.811Z,1002.842
2023-03-22T03:37:24.801Z,1002.828
2023-03-22T03:37:54.797Z,1002.813
2023-03-22T03:38:24.800Z,1002.812
2023-03-22T03:38:54.802Z,1002.797
2023-03-22T03:39:24.806Z,1002.786
2023-03-22T03:39:54.805Z,1002.778
2023-03-22T03:40:24.797Z,1002.762
2023-03-22T03:40:54.798Z,1002.747
2023-03-22T03:41:24.797Z,1002.736
2023-03-22T03:41:54.797Z,1002.73
2023-03-22T03:42:24.799Z,1002.737
2023-03-22T03:42:54.800Z,1002.737
2023-03-22T03:43:24.798Z,1002.744
2023-03-22T03:43:54.805Z,1002.742
2023-03-22T03:44:24.802Z,1002.746
2023-03-22T03:44:54.803Z,1002.759
2023-03-22T03:45:24.995Z,1002.768
2023-03-22T03:45:54.929Z,1002.786
2023-03-22T03:46:24.824Z,1002.802
2023-03-22T03:46:54.805Z,1002.826
2023-03-22T03:47:24.803Z,1002.837
2023-03-22T03:47:54.848Z,1002.845
2023-03-22T03:48:24.856Z,1002.845
2023-03-22T03:48:54.811Z,1002.856
2023-03-22T03:49:24.798Z,1002.843
2023-03-22T03:49:54.804Z,1002.837
2023-03-22T03:50:24.804Z,1002.827
2023-03-22T03:50:54.803Z,1002.813
2023-03-22T03:51:24.805Z,1002.806
2023-03-22T03:51:54.808Z,1002.804
2023-03-22T03:52:24.800Z,1002.798
2023-03-22T03:52:54.805Z,1002.798
2023-03-22T03:53:24.804Z,1002.795
2023-03-22T03:53:54.813Z,1002.792
2023-03-22T03:54:24.813Z,1002.787
2023-03-22T03:54:54.812Z,1002.789
2023-03-22T03:55:24.810Z,1002.789
2023-03-22T03:55:54.802Z,1002.788
2023-03-22T03:56:24.800Z,1002.794
2023-03-22T03:56:54.804Z,1002.807
2023-03-22T03:57:24.825Z,1002.812
2023-03-22T03:57:54.810Z,1002.814
2023-03-22T03:58:24.801Z,1002.824
2023-03-22T03:58:54.801Z,1002.818
2023-03-22T03:59:24.806Z,1002.805
2023-03-22T03:59:54.827Z,1002.816
2023-03-22T04:00:24.807Z,1002.797
2023-03-22T04:00:54.805Z,1002.799
2023-03-22T04:01:24.809Z,1002.796
2023-03-22T04:01:54.816Z,1002.784
2023-03-22T04:02:24.914Z,1002.775
2023-03-22T04:02:54.804Z,1002.797
2023-03-22T04:03:24.804Z,1002.804
2023-03-22T04:03:54.838Z,1002.813
2023-03-22T04:04:24.846Z,1002.822
2023-03-22T04:04:54.803Z,1002.83
2023-03-22T04:05:24.805Z,1002.824
2023-03-22T04:05:54.803Z,1002.824
2023-03-22T04:06:24.804Z,1002.826
2023-03-22T04:06:54.804Z,1002.829
2023-03-22T04:07:24.804Z,1002.821
2023-03-22T04:07:54.804Z,1002.817
2023-03-22T04:08:24.810Z,1002.826
2023-03-22T04:08:54.818Z,1002.834
2023-03-22T04:09:24.808Z,1002.841
2023-03-22T04:09:54.805Z,1002.854
2023-03-22T04:10:24.809Z,1002.854
2023-03-22T04:10:54.810Z,1002.85
2023-03-22T04:11:24.810Z,1002.84
2023-03-22T04:11:54.808Z,1002.831
2023-03-22T04:12:24.804Z,1002.818
2023-03-22T04:12:54.804Z,1002.812
2023-03-22T04:13:24.817Z,1002.793
2023-03-22T04:13:54.809Z,1002.793
2023-03-22T04:14:24.807Z,1002.786
2023-03-22T04:14:54.806Z,1002.779
2023-03-22T04:15:24.808Z,1002.776
2023-03-22T04:15:54.812Z,1002.781
2023-03-22T04:16:24.846Z,1002.782
2023-03-22T04:16:54.841Z,1002.795
2023-03-22T04:17:24.812Z,1002.817
2023-03-22T04:17:54.815Z,1002.836
2023-03-22T04:18:24.823Z,1002.854
2023-03-22T04:18:54.813Z,1002.872
2023-03-22T04:19:24.819Z,1002.883
2023-03-22T04:19:54.811Z,1002.892
2023-03-22T04:20:24.805Z,1002.905
2023-03-22T04:20:54.806Z,1002.92
2023-03-22T04:21:24.813Z,1002.947
2023-03-22T04:21:54.808Z,1002.942
2023-03-22T04:22:24.806Z,1002.953
2023-03-22T04:22:54.814Z,1002.948
2023-03-22T04:23:24.812Z,1002.94
2023-03-22T04:23:54.813Z,1002.943
2023-03-22T04:24:24.812Z,1002.959
2023-03-22T04:24:54.810Z,1002.973
2023-03-22T04:25:24.810Z,1002.98
2023-03-22T04:25:54.845Z,1002.991
2023-03-22T04:26:26.669Z,1002.987
2023-03-22T04:26:54.807Z,1002.987
2023-03-22T04:27:24.818Z,1002.974
2023-03-22T04:27:54.806Z,1002.966
2023-03-22T04:28:24.812Z,1002.967
2023-03-22T04:28:54.810Z,1002.966
2023-03-22T04:29:24.808Z,1002.957
2023-03-22T04:29:54.817Z,1002.957
2023-03-22T04:30:24.863Z,1002.968
2023-03-22T04:30:54.832Z,1002.971
2023-03-22T04:31:24.865Z,1002.982
2023-03-22T04:31:54.810Z,1002.987
2023-03-22T04:32:24.816Z,1002.991
2023-03-22T04:32:54.812Z,1002.983
2023-03-22T04:33:24.807Z,1002.979
2023-03-22T04:33:54.818Z,1002.976
2023-03-22T04:34:24.810Z,1002.98
2023-03-22T04:34:54.822Z,1002.981
2023-03-22T04:35:24.856Z,1002.987
2023-03-22T04:35:54.850Z,1002.991
2023-03-22T04:36:24.812Z,1003.003
2023-03-22T04:36:54.815Z,1003.021
2023-03-22T04:37:24.808Z,1003.007
2023-03-22T04:37:54.814Z,1003
2023-03-22T04:38:24.814Z,1002.995
2023-03-22T04:38:54.811Z,1002.998
2023-03-22T04:39:24.807Z,1003.003
2023-03-22T04:39:54.808Z,1002.993
2023-03-22T04:40:24.811Z,1003.003
2023-03-22T04:40:54.806Z,1003.008
2023-03-22T04:41:24.820Z,1003.014
2023-03-22T04:41:54.807Z,1003.026
2023-03-22T04:42:24.810Z,1003.043
2023-03-22T04:42:54.813Z,1003.042
2023-03-22T04:43:24.807Z,1003.056
2023-03-22T04:43:54.817Z,1003.064
2023-03-22T04:44:24.806Z,1003.074
2023-03-22T04:44:54.812Z,1003.078
2023-03-22T04:45:24.813Z,1003.087
2023-03-22T04:45:55.105Z,1003.101
2023-03-22T04:46:24.906Z,1003.11
2023-03-22T04:46:54.807Z,1003.104
2023-03-22T04:47:24.816Z,1003.105
2023-03-22T04:47:54.885Z,1003.107
2023-03-22T04:48:24.806Z,1003.1
2023-03-22T04:48:54.832Z,1003.086
2023-03-22T04:49:24.814Z,1003.092
2023-03-22T04:49:54.810Z,1003.083
2023-03-22T04:50:24.811Z,1003.064
2023-03-22T04:50:54.828Z,1003.048
2023-03-22T04:51:24.814Z,1003.039
2023-03-22T04:51:54.809Z,1003.026
2023-03-22T04:52:24.853Z,1003.026
2023-03-22T04:52:54.823Z,1003.025
2023-03-22T04:53:24.823Z,1003.029
2023-03-22T04:53:54.822Z,1003.026
2023-03-22T04:54:24.810Z,1003.024
2023-03-22T04:54:54.815Z,1003.029
2023-03-22T04:55:24.809Z,1003.038
2023-03-22T04:55:54.809Z,1003.063
2023-03-22T04:56:24.839Z,1003.082
2023-03-22T04:56:54.814Z,1003.103
2023-03-22T04:57:24.824Z,1003.117
2023-03-22T04:57:54.918Z,1003.141
2023-03-22T04:58:24.812Z,1003.155
2023-03-22T04:58:54.809Z,1003.168
2023-03-22T04:59:24.809Z,1003.175
2023-03-22T04:59:54.808Z,1003.19
2023-03-22T05:00:24.808Z,1003.193
2023-03-22T05:00:54.809Z,1003.208
2023-03-22T05:01:24.859Z,1003.219
2023-03-22T05:01:54.866Z,1003.226
2023-03-22T05:02:24.875Z,1003.237
2023-03-22T05:02:54.887Z,1003.234
2023-03-22T05:03:24.815Z,1003.224
2023-03-22T05:03:54.808Z,1003.217
2023-03-22T05:04:24.824Z,1003.214
2023-03-22T05:04:54.810Z,1003.202
2023-03-22T05:05:24.827Z,1003.185
2023-03-22T05:05:54.822Z,1003.179
2023-03-22T05:06:24.810Z,1003.179
2023-03-22T05:06:54.812Z,1003.184
2023-03-22T05:07:24.812Z,1003.182
2023-03-22T05:07:54.819Z,1003.178
2023-03-22T05:08:24.841Z,1003.188
2023-03-22T05:08:54.816Z,1003.199
2023-03-22T05:09:24.826Z,1003.21
2023-03-22T05:09:54.810Z,1003.217
2023-03-22T05:10:24.810Z,1003.214
2023-03-22T05:10:54.810Z,1003.222
2023-03-22T05:11:24.808Z,1003.215
2023-03-22T05:11:54.813Z,1003.225
2023-03-22T05:12:24.808Z,1003.237
2023-03-22T05:12:54.813Z,1003.242
2023-03-22T05:13:24.820Z,1003.261
2023-03-22T05:13:54.812Z,1003.26
2023-03-22T05:14:24.845Z,1003.262
2023-03-22T05:14:54.824Z,1003.256
2023-03-22T05:15:24.819Z,1003.253
2023-03-22T05:15:54.845Z,1003.245
2023-03-22T05:16:24.951Z,1003.238
2023-03-22T05:16:55.012Z,1003.229
2023-03-22T05:17:24.818Z,1003.238
2023-03-22T05:17:54.816Z,1003.24
2023-03-22T05:18:24.808Z,1003.247
2023-03-22T05:18:54.810Z,1003.246
2023-03-22T05:19:24.853Z,1003.245
2023-03-22T05:19:54.811Z,1003.232
2023-03-22T05:20:24.812Z,1003.243
2023-03-22T05:20:54.810Z,1003.245
2023-03-22T05:21:24.815Z,1003.247
2023-03-22T05:21:54.822Z,1003.249
2023-03-22T05:22:24.829Z,1003.246
2023-03-22T05:22:54.818Z,1003.241
2023-03-22T05:23:24.822Z,1003.241
2023-03-22T05:23:54.815Z,1003.258
2023-03-22T05:24:24.820Z,1003.268
2023-03-22T05:24:54.811Z,1003.282
2023-03-22T05:25:24.823Z,1003.286
2023-03-22T05:25:54.811Z,1003.286
2023-03-22T05:26:24.815Z,1003.285
2023-03-22T05:26:54.817Z,1003.282
2023-03-22T05:27:24.815Z,1003.273
2023-03-22T05:27:54.811Z,1003.268
2023-03-22T05:28:24.815Z,1003.276
2023-03-22T05:28:54.814Z,1003.273
2023-03-22T05:29:24.816Z,1003.273
2023-03-22T05:29:54.811Z,1003.276
2023-03-22T05:30:24.814Z,1003.283
2023-03-22T05:30:57.040Z,1003.278
2023-03-22T05:31:24.859Z,1003.28
2023-03-22T05:31:54.888Z,1003.284
2023-03-22T05:32:24.814Z,1003.287
2023-03-22T05:32:54.812Z,1003.296
2023-03-22T05:33:24.817Z,1003.308
2023-03-22T05:33:54.816Z,1003.303
2023-03-22T05:34:24.819Z,1003.3
2023-03-22T05:34:54.815Z,1003.292
2023-03-22T05:35:24.909Z,1003.286
2023-03-22T05:35:54.851Z,1003.286
2023-03-22T05:36:24.819Z,1003.285
2023-03-22T05:36:54.829Z,1003.29
2023-03-22T05:37:24.823Z,1003.282
2023-03-22T05:37:54.819Z,1003.279
2023-03-22T05:38:24.825Z,1003.275
2023-03-22T05:38:54.820Z,1003.271
2023-03-22T05:39:24.825Z,1003.255
2023-03-22T05:39:54.822Z,1003.251
2023-03-22T05:40:24.820Z,1003.248
2023-03-22T05:40:54.831Z,1003.242
2023-03-22T05:41:24.837Z,1003.244
2023-03-22T05:41:54.825Z,1003.254
2023-03-22T05:42:24.818Z,1003.259
2023-03-22T05:42:54.827Z,1003.263
2023-03-22T05:43:24.825Z,1003.255
2023-03-22T05:43:54.819Z,1003.253
2023-03-22T05:44:24.826Z,1003.253
2023-03-22T05:44:54.836Z,1003.247
2023-03-22T05:45:24.819Z,1003.256
2023-03-22T05:45:54.827Z,1003.25
2023-03-22T05:46:24.836Z,1003.256
2023-03-22T05:46:54.876Z,1003.25
2023-03-22T05:47:24.823Z,1003.241
2023-03-22T05:47:54.842Z,1003.237
2023-03-22T05:48:24.857Z,1003.231
2023-03-22T05:48:54.823Z,1003.217
2023-03-22T05:49:24.821Z,1003.209
2023-03-22T05:49:54.820Z,1003.216
2023-03-22T05:50:24.824Z,1003.218
2023-03-22T05:50:54.829Z,1003.219
2023-03-22T05:51:24.825Z,1003.217
2023-03-22T05:51:54.825Z,1003.213
2023-03-22T05:52:24.832Z,1003.215
2023-03-22T05:52:54.822Z,1003.207
2023-03-22T05:53:24.826Z,1003.211
2023-03-22T05:53:54.823Z,1003.215